Time;durP1;ratioP1;P1;durP2;ratioP2;P2;SDS_P1;SDS_P2;PMS_P1;PMS_P2;Temp;Humidity;BMP_temperature;BMP_pressure;BME280_temperature;BME280_humidity;BME280_pressure;Samples;Min_cycle;Max_cycle;Signal;HPM_P1;HPM_P2
2023/10/28 00:01:11;;;;;;;1.33;0.50;;;9.40;99.90;;;8.87;100.00;95705.88;5059516;28;20100;-38
2023/10/28 00:03:37;;;;;;;1.17;0.40;;;9.40;99.90;;;8.86;100.00;95705.03;5056201;28;20031;-38
2023/10/28 00:06:03;;;;;;;1.30;0.40;;;9.40;99.90;;;8.87;100.00;95708.53;5059036;28;20044;-38
2023/10/28 00:08:29;;;;;;;0.70;0.40;;;9.50;99.90;;;8.88;100.00;95715.44;5059741;28;20039;-38
2023/10/28 00:10:55;;;;;;;1.70;0.40;;;9.40;99.90;;;8.88;100.00;95713.69;5059561;28;20033;-38
2023/10/28 00:13:21;;;;;;;1.08;0.50;;;9.50;99.90;;;8.87;100.00;95714.63;5060719;28;20044;-38
2023/10/28 00:15:46;;;;;;;0.65;0.30;;;9.50;99.90;;;8.87;100.00;95709.34;5056414;28;20492;-39
2023/10/28 00:18:12;;;;;;;0.45;0.30;;;9.40;99.90;;;8.85;100.00;95708.59;5061427;28;20078;-39
2023/10/28 00:20:38;;;;;;;1.55;0.40;;;9.40;99.90;;;8.85;100.00;95723.53;5058235;28;20496;-39
2023/10/28 00:23:04;;;;;;;0.80;0.40;;;9.40;99.90;;;8.87;100.00;95717.25;5057656;28;20032;-38
2023/10/28 00:25:31;;;;;;;1.98;0.43;;;9.40;99.90;;;8.82;100.00;95716.66;5057177;28;20086;-40
2023/10/28 00:27:57;;;;;;;1.05;0.40;;;9.40;99.90;;;8.81;100.00;95722.00;5059460;28;20047;-40
2023/10/28 00:30:24;;;;;;;0.93;0.38;;;9.40;99.90;;;8.75;100.00;95720.56;5059227;28;20605;-39
2023/10/28 00:32:58;;;;;;;0.88;0.30;;;9.30;99.90;;;8.79;100.00;95722.06;5057691;28;20064;-40
2023/10/28 00:35:24;;;;;;;0.52;0.30;;;9.30;99.90;;;8.73;100.00;95725.91;5057975;28;20566;-39
2023/10/28 00:37:50;;;;;;;1.02;0.40;;;9.30;99.90;;;8.71;100.00;95730.41;5059004;28;20087;-38
2023/10/28 00:40:17;;;;;;;2.10;0.40;;;9.30;99.90;;;8.62;100.00;95716.94;5059424;28;20025;-38
2023/10/28 00:42:45;;;;;;;1.33;0.60;;;9.30;99.90;;;8.67;100.00;95726.25;5055730;28;20301;-40
2023/10/28 00:45:13;;;;;;;0.65;0.38;;;9.20;99.90;;;8.61;100.00;95734.47;5057818;28;20024;-38
2023/10/28 00:47:42;;;;;;;3.63;0.55;;;9.20;99.90;;;8.53;100.00;95729.66;5056522;28;20366;-38
2023/10/28 00:50:14;;;;;;;0.63;0.50;;;9.10;99.90;;;8.45;100.00;95731.00;5041967;28;20107;-39
2023/10/28 00:52:46;;;;;;;0.63;0.30;;;9.00;99.90;;;8.45;100.00;95731.00;5056544;28;20044;-38
2023/10/28 00:55:13;;;;;;;;;;;9.00;99.90;;;8.39;100.00;95733.00;5041515;28;20108;-38
2023/10/28 00:57:41;;;;;;;2.85;0.50;;;8.90;99.90;;;8.36;100.00;95732.31;5041135;28;19908;-42
2023/10/28 01:00:08;;;;;;;0.75;0.38;;;8.90;99.90;;;8.39;100.00;95737.41;5063829;28;20078;-40
2023/10/28 01:02:40;;;;;;;1.52;0.40;;;8.90;99.90;;;8.30;100.00;95724.78;5063422;28;20251;-39
2023/10/28 01:05:14;;;;;;;4.07;0.30;;;8.90;99.90;;;8.33;100.00;95733.34;5065115;28;20024;-39
2023/10/28 01:07:45;;;;;;;2.15;0.43;;;8.90;99.90;;;8.34;100.00;95736.81;5059287;28;20076;-39
2023/10/28 01:10:12;;;;;;;1.90;0.50;;;8.90;99.90;;;8.38;100.00;95735.69;5064870;28;20408;-39
2023/10/28 01:12:37;;;;;;;1.80;0.40;;;8.90;99.90;;;8.40;100.00;95733.88;5059916;28;20052;-39
2023/10/28 01:15:05;;;;;;;1.10;0.60;;;9.00;99.90;;;8.45;100.00;95739.72;5064040;28;20036;-39
2023/10/28 01:17:31;;;;;;;0.98;0.40;;;9.00;99.90;;;8.41;100.00;95741.63;5063463;28;20017;-39
2023/10/28 01:19:57;;;;;;;1.02;0.55;;;9.00;99.90;;;8.47;100.00;95740.50;5064209;28;20033;-39
2023/10/28 01:22:24;;;;;;;1.80;0.60;;;9.00;99.90;;;8.45;100.00;95749.38;5063891;28;20031;-38
2023/10/28 01:24:50;;;;;;;1.05;0.50;;;9.00;99.90;;;8.35;100.00;95739.34;5060750;28;20363;-38
2023/10/28 01:27:17;;;;;;;0.70;0.50;;;9.00;99.90;;;8.44;100.00;95747.72;5063352;28;20058;-39
2023/10/28 01:29:43;;;;;;;1.48;0.30;;;9.00;99.90;;;8.43;100.00;95736.34;5063268;28;20039;-39
2023/10/28 01:32:09;;;;;;;0.90;0.40;;;9.10;99.90;;;8.40;100.00;95731.25;5062097;28;20388;-39
2023/10/28 01:34:52;;;;;;;0.30;0.20;;;9.10;99.90;;;8.49;100.00;95740.41;5061534;28;20028;-38
2023/10/28 01:37:19;;;;;;;2.65;0.60;;;9.10;99.90;;;8.50;100.00;95748.19;5062733;28;20451;-39
2023/10/28 01:39:50;;;;;;;1.88;0.50;;;9.10;99.90;;;8.47;100.00;95756.28;5059758;28;20040;-40
2023/10/28 01:42:20;;;;;;;1.77;0.40;;;9.00;99.90;;;8.45;100.00;95752.00;5062344;28;20038;-38
2023/10/28 01:44:48;;;;;;;1.40;0.50;;;9.00;99.90;;;8.43;100.00;95757.34;5058362;28;20361;-38
2023/10/28 01:47:14;;;;;;;0.50;0.40;;;9.00;99.90;;;8.46;100.00;95761.59;5063249;28;20039;-39
2023/10/28 01:49:42;;;;;;;1.65;0.90;;;9.00;99.90;;;8.47;100.00;95760.66;5061481;28;20071;-38
2023/10/28 01:52:10;;;;;;;1.45;0.60;;;9.00;99.90;;;8.47;100.00;95763.28;5063092;28;20154;-38
2023/10/28 01:54:36;;;;;;;1.95;0.60;;;9.00;99.90;;;8.47;100.00;95764.16;5061098;28;20072;-39
2023/10/28 01:57:07;;;;;;;1.02;0.50;;;9.00;99.90;;;8.44;100.00;95766.09;5062494;28;20056;-39
2023/10/28 01:59:37;;;;;;;2.67;0.60;;;9.00;99.90;;;8.38;100.00;95772.47;5060368;28;20032;-39
2023/10/28 02:02:04;;;;;;;1.58;0.50;;;9.00;99.90;;;8.38;100.00;95775.97;5064053;28;20047;-39
2023/10/28 02:04:31;;;;;;;1.95;0.47;;;9.00;99.90;;;8.37;100.00;95768.16;5057364;28;20033;-39
2023/10/28 02:06:57;;;;;;;1.25;0.60;;;9.00;99.90;;;8.44;100.00;95784.50;5063160;28;20568;-41
2023/10/28 02:09:23;;;;;;;1.10;0.60;;;9.00;99.90;;;8.41;100.00;95774.94;5061634;28;20032;-38
2023/10/28 02:11:52;;;;;;;1.55;0.50;;;9.10;99.90;;;8.49;100.00;95787.69;5060520;28;20047;-38
2023/10/28 02:14:18;;;;;;;2.08;0.70;;;9.10;99.90;;;8.50;100.00;95795.50;5062011;28;20045;-39
2023/10/28 02:16:44;;;;;;;3.10;0.47;;;9.10;99.90;;;8.51;100.00;95791.94;5060064;28;20542;-39
2023/10/28 02:19:10;;;;;;;1.00;0.47;;;9.10;99.90;;;8.53;100.00;95794.50;5063879;28;20074;-38
2023/10/28 02:21:36;;;;;;;2.58;0.73;;;9.10;99.90;;;8.43;100.00;95791.50;5061754;28;20512;-39
2023/10/28 02:24:04;;;;;;;1.08;0.50;;;9.10;99.90;;;8.46;100.00;95801.00;5059945;28;20043;-39
2023/10/28 02:26:30;;;;;;;1.23;0.50;;;9.00;99.90;;;8.44;100.00;95801.09;5062420;28;20035;-38
2023/10/28 02:28:56;;;;;;;3.88;0.80;;;9.00;99.90;;;8.45;100.00;95791.41;5062754;28;20036;-39
2023/10/28 02:31:22;;;;;;;3.90;0.70;;;9.00;99.90;;;8.39;100.00;95795.19;5063276;28;20033;-38
2023/10/28 02:33:48;;;;;;;4.53;0.77;;;8.90;99.90;;;8.34;100.00;95784.91;5058783;28;20033;-38
2023/10/28 02:36:13;;;;;;;1.85;0.70;;;8.90;99.90;;;8.27;100.00;95794.06;5062645;28;20086;-38
2023/10/28 02:38:40;;;;;;;1.00;0.50;;;8.90;99.90;;;8.22;100.00;95790.88;5061320;28;20548;-38
2023/10/28 02:41:06;;;;;;;0.95;0.60;;;8.80;99.90;;;8.18;100.00;95798.06;5059896;28;20029;-39
2023/10/28 02:43:35;;;;;;;0.98;0.60;;;8.80;99.90;;;8.15;100.00;95794.75;5055746;28;20374;-39
2023/10/28 02:46:06;;;;;;;4.40;0.68;;;8.70;99.90;;;8.12;100.00;95793.09;5063519;28;20473;-39
2023/10/28 02:48:33;;;;;;;1.10;0.50;;;8.60;99.90;;;8.05;100.00;95793.53;5049842;28;20138;-38
2023/10/28 02:51:05;;;;;;;3.20;0.70;;;8.60;99.90;;;7.98;100.00;95793.00;5058522;28;20037;-40
2023/10/28 02:53:33;;;;;;;1.83;0.70;;;8.60;99.90;;;7.99;100.00;95790.28;5058483;28;20657;-39
2023/10/28 02:56:03;;;;;;;2.65;0.88;;;8.60;99.90;;;8.03;100.00;95801.47;5061063;28;20545;-38
2023/10/28 02:58:29;;;;;;;2.28;0.60;;;8.60;99.90;;;8.07;100.00;95795.13;5060880;28;20032;-38
2023/10/28 03:00:57;;;;;;;1.83;0.52;;;8.60;99.90;;;8.11;100.00;95790.56;5058859;28;20515;-39
2023/10/28 03:03:24;;;;;;;2.08;0.63;;;8.70;99.90;;;8.13;100.00;95796.56;5058255;28;20438;-39
2023/10/28 03:05:50;;;;;;;1.67;0.57;;;8.70;99.90;;;8.14;100.00;95799.13;5058850;28;20033;-39
2023/10/28 03:08:18;;;;;;;1.30;0.70;;;8.70;99.90;;;8.13;100.00;95800.06;5062059;28;20548;-39
2023/10/28 03:10:44;;;;;;;1.58;0.47;;;8.70;99.90;;;8.13;100.00;95802.69;5059960;28;20033;-38
2023/10/28 03:13:10;;;;;;;3.28;0.88;;;8.70;99.90;;;8.15;100.00;95803.47;5062692;28;20036;-38
2023/10/28 03:15:36;;;;;;;2.88;0.80;;;8.70;99.90;;;8.14;100.00;95800.91;5059749;28;20032;-39
2023/10/28 03:18:02;;;;;;;2.03;0.77;;;8.70;99.90;;;8.13;100.00;95799.19;5062652;28;20028;-39
2023/10/28 03:20:27;;;;;;;1.98;0.80;;;8.70;99.90;;;8.10;100.00;95800.22;5059766;28;20035;-39
2023/10/28 03:22:53;;;;;;;2.55;0.90;;;8.70;99.90;;;8.05;100.00;95796.97;5058632;28;20028;-40
2023/10/28 03:25:20;;;;;;;3.50;0.70;;;8.60;99.90;;;8.05;100.00;95790.91;5059796;28;20568;-40
2023/10/28 03:27:46;;;;;;;3.53;1.25;;;8.60;99.90;;;8.08;100.00;95796.84;5059779;28;20033;-38
2023/10/28 03:30:12;;;;;;;5.25;0.90;;;8.60;99.90;;;8.10;100.00;95791.50;5063154;28;20029;-39
2023/10/28 03:32:37;;;;;;;4.47;1.05;;;8.70;99.90;;;8.12;100.00;95797.53;5059891;28;20031;-39
2023/10/28 03:35:04;;;;;;;5.53;1.10;;;8.70;99.90;;;8.01;100.00;95782.34;5059998;28;20040;-39
2023/10/28 03:37:31;;;;;;;3.30;0.95;;;8.70;99.90;;;8.05;100.00;95775.16;5063876;28;20063;-40
2023/10/28 03:39:57;;;;;;;4.63;1.10;;;8.80;99.90;;;8.25;100.00;95803.81;5059189;28;20024;-39
2023/10/28 03:42:23;;;;;;;3.80;1.25;;;8.80;99.90;;;8.31;100.00;95810.50;5041987;28;20024;-40
2023/10/28 03:44:48;;;;;;;3.53;0.98;;;8.90;99.90;;;8.34;100.00;95807.72;5056986;28;20037;-41
2023/10/28 03:47:14;;;;;;;4.22;1.00;;;8.90;99.90;;;8.38;100.00;95806.63;5062101;28;20045;-39
2023/10/28 03:49:40;;;;;;;5.43;1.30;;;8.90;99.90;;;8.36;100.00;95804.09;5052688;28;20038;-39
2023/10/28 03:52:06;;;;;;;2.70;1.08;;;8.90;99.90;;;8.35;100.00;95802.38;5055565;28;20793;-39
2023/10/28 03:54:32;;;;;;;3.92;1.40;;;8.90;99.90;;;8.39;100.00;95803.91;5056950;28;20032;-39
2023/10/28 03:56:58;;;;;;;5.20;1.13;;;8.90;99.90;;;8.40;100.00;95808.25;5057466;28;20021;-39
2023/10/28 03:59:24;;;;;;;2.92;0.95;;;9.00;99.90;;;8.40;100.00;95804.78;5058313;28;21071;-40
2023/10/28 04:01:50;;;;;;;2.33;0.80;;;8.90;99.90;;;8.40;100.00;95804.78;5056939;28;20041;-39
2023/10/28 04:04:16;;;;;;;4.78;1.05;;;8.90;99.90;;;8.39;100.00;95797.81;5061914;28;20036;-39
2023/10/28 04:06:42;;;;;;;2.00;0.70;;;8.90;99.90;;;8.38;100.00;95802.25;5059787;28;20458;-39
2023/10/28 04:09:08;;;;;;;3.03;1.10;;;8.90;99.90;;;8.37;100.00;95797.91;5051924;28;20032;-40
2023/10/28 04:11:33;;;;;;;6.07;1.35;;;8.90;99.90;;;8.38;100.00;95802.25;5057365;28;20062;-39
2023/10/28 04:13:59;;;;;;;3.92;1.23;;;8.90;99.90;;;8.40;100.00;95803.00;5058598;28;20497;-39
2023/10/28 04:16:25;;;;;;;2.28;0.98;;;8.90;99.90;;;8.44;100.00;95795.84;5058670;28;20079;-39
2023/10/28 04:18:52;;;;;;;3.03;1.23;;;9.00;99.90;;;8.41;100.00;95798.59;5056464;28;20021;-39
2023/10/28 04:21:17;;;;;;;6.35;1.13;;;9.00;99.90;;;8.47;100.00;95802.69;5051939;28;20025;-38
2023/10/28 04:23:43;;;;;;;5.63;1.08;;;9.00;99.90;;;8.35;100.00;95770.88;5033786;28;20036;-40
2023/10/28 04:26:09;;;;;;;3.97;1.00;;;9.00;99.90;;;8.47;100.00;95792.19;5058563;28;20036;-39
2023/10/28 04:28:34;;;;;;;5.85;0.90;;;9.00;99.90;;;8.39;100.00;95788.16;5059926;28;20416;-39
2023/10/28 04:31:00;;;;;;;7.13;1.02;;;9.00;99.90;;;8.35;100.00;95783.16;5059183;28;20052;-39
2023/10/28 04:33:26;;;;;;;7.05;0.88;;;8.90;99.90;;;8.33;100.00;95792.91;5057863;28;20527;-39
2023/10/28 04:35:53;;;;;;;2.13;0.90;;;8.90;99.90;;;8.29;100.00;95797.47;5056079;28;20546;-39
2023/10/28 04:38:22;;;;;;;4.45;1.33;;;8.90;99.90;;;8.30;100.00;95796.53;5063690;28;20033;-39
2023/10/28 04:40:49;;;;;;;2.92;0.95;;;8.80;99.90;;;8.27;100.00;95803.72;5061228;28;20032;-40
2023/10/28 04:43:15;;;;;;;3.58;0.85;;;8.80;99.90;;;8.27;100.00;95788.81;5057074;28;20023;-42
2023/10/28 04:45:44;;;;;;;2.35;0.70;;;8.80;99.90;;;8.37;100.00;95790.03;5060297;28;20020;-39
2023/10/28 04:48:11;;;;;;;1.70;0.70;;;8.90;99.90;;;8.29;100.00;95799.25;5057684;28;20029;-38
2023/10/28 04:50:37;;;;;;;2.08;0.57;;;8.80;99.90;;;8.25;100.00;95790.69;5056797;28;20024;-40
2023/10/28 04:53:03;;;;;;;3.63;0.75;;;8.80;99.90;;;8.22;100.00;95790.88;5054883;28;20028;-39
2023/10/28 04:55:28;;;;;;;2.50;0.90;;;8.80;99.90;;;8.22;100.00;95788.22;5057054;28;20173;-39
2023/10/28 04:57:54;;;;;;;3.53;0.95;;;8.80;99.90;;;8.26;100.00;95788.91;5053828;28;20377;-40
2023/10/28 05:00:20;;;;;;;5.35;0.70;;;8.80;99.90;;;8.25;100.00;95793.31;5060378;28;20025;-40
2023/10/28 05:02:46;;;;;;;2.80;0.52;;;8.80;99.90;;;8.18;100.00;95803.31;5061043;28;20036;-39
2023/10/28 05:05:14;;;;;;;2.88;0.65;;;8.70;99.90;;;8.13;100.00;95800.06;5053230;28;20132;-39
2023/10/28 05:07:40;;;;;;;3.08;0.68;;;8.70;99.90;;;8.12;100.00;95793.09;5053082;28;20032;-39
2023/10/28 05:10:09;;;;;;;6.72;0.82;;;8.70;99.90;;;8.11;100.00;95798.44;5057043;28;20120;-39
2023/10/28 05:12:35;;;;;;;6.25;0.80;;;8.60;99.90;;;8.10;100.00;95800.22;5059520;28;20540;-39
2023/10/28 05:15:02;;;;;;;3.22;0.88;;;8.60;99.90;;;8.06;100.00;95795.19;5058178;28;20025;-39
2023/10/28 05:17:27;;;;;;;3.78;0.77;;;8.60;99.90;;;7.99;100.00;95792.06;5059029;28;20035;-38
2023/10/28 05:19:53;;;;;;;3.47;0.80;;;8.60;99.90;;;7.92;100.00;95791.53;5056116;28;20444;-39
2023/10/28 05:22:19;;;;;;;1.15;0.75;;;8.50;99.90;;;7.90;100.00;95789.94;5058410;28;20032;-39
2023/10/28 05:24:47;;;;;;;3.90;0.73;;;8.50;99.90;;;7.91;100.00;95789.81;5055654;28;20429;-39
2023/10/28 05:27:13;;;;;;;5.95;0.70;;;8.40;99.90;;;7.94;100.00;95791.47;5057823;28;20061;-38
2023/10/28 05:29:39;;;;;;;2.10;0.80;;;8.50;99.90;;;7.95;100.00;95794.00;5055946;28;20469;-38
2023/10/28 05:32:05;;;;;;;2.33;0.63;;;8.50;99.90;;;7.95;100.00;95788.75;5055940;28;20043;-38
2023/10/28 05:34:30;;;;;;;3.85;0.70;;;8.50;99.90;;;8.00;100.00;95785.88;5060362;28;20036;-39
2023/10/28 05:36:56;;;;;;;3.15;0.80;;;8.50;99.90;;;8.03;100.00;95796.22;5058188;28;20385;-39
2023/10/28 05:39:22;;;;;;;3.90;0.65;;;8.50;99.90;;;8.03;100.00;95796.22;5059143;28;20025;-38
2023/10/28 05:41:50;;;;;;;2.33;0.60;;;8.60;99.90;;;7.97;100.00;95791.31;5056769;28;20029;-39
2023/10/28 05:44:17;;;;;;;2.53;0.70;;;8.60;99.90;;;8.01;100.00;95803.34;5060907;28;20043;-40
2023/10/28 05:46:44;;;;;;;2.90;0.80;;;8.60;99.90;;;8.02;100.00;95805.88;5061618;28;20028;-39
2023/10/28 05:49:12;;;;;;;4.68;0.77;;;8.60;99.90;;;8.06;100.00;95811.81;5062996;28;20304;-39
2023/10/28 05:51:38;;;;;;;5.10;0.95;;;8.60;99.90;;;8.05;100.00;95814.53;5059271;28;20032;-39
2023/10/28 05:54:04;;;;;;;1.45;0.80;;;8.60;99.90;;;8.06;100.00;95824.94;5059062;28;20043;-39
2023/10/28 05:56:30;;;;;;;2.65;0.90;;;8.60;99.90;;;8.06;100.00;95824.94;5057824;28;20385;-39
2023/10/28 05:58:58;;;;;;;1.52;0.52;;;8.60;99.90;;;8.08;100.00;95825.72;5059786;28;20050;-38
2023/10/28 06:01:25;;;;;;;4.50;1.15;;;8.60;99.90;;;8.10;100.00;95823.00;5058591;28;20108;-38
2023/10/28 06:03:50;;;;;;;2.92;0.70;;;8.60;99.90;;;8.13;100.00;95828.94;5059288;28;20032;-39
2023/10/28 06:06:16;;;;;;;2.38;0.60;;;8.60;99.90;;;8.21;100.00;95824.13;5064696;28;20031;-38
2023/10/28 06:08:42;;;;;;;3.30;0.60;;;8.70;99.90;;;8.26;100.00;95825.69;5061863;28;20063;-39
2023/10/28 06:11:09;;;;;;;3.38;0.80;;;8.80;99.90;;;8.29;100.00;95839.50;5061113;28;20508;-38
2023/10/28 06:13:36;;;;;;;4.28;0.93;;;8.80;99.90;;;8.36;100.00;95837.38;5061756;28;20396;-38
2023/10/28 06:16:02;;;;;;;3.22;0.98;;;8.80;99.90;;;8.38;100.00;95835.50;5060896;28;20025;-40
2023/10/28 06:18:27;;;;;;;2.83;0.85;;;8.90;99.90;;;8.38;100.00;95841.63;5060638;28;20405;-38
2023/10/28 06:20:53;;;;;;;2.22;0.70;;;8.90;99.90;;;8.45;100.00;95850.06;5062439;28;20059;-38
2023/10/28 06:23:19;;;;;;;2.15;0.60;;;9.00;99.90;;;8.49;100.00;95846.34;5063058;28;20043;-38
2023/10/28 06:25:44;;;;;;;5.50;0.93;;;9.00;99.90;;;8.55;100.00;95850.44;5063700;28;20028;-38
2023/10/28 06:28:10;;;;;;;2.03;0.70;;;9.10;99.90;;;8.58;100.00;95858.16;5059771;28;20051;-41
2023/10/28 06:30:44;;;;;;;4.18;0.80;;;9.10;99.90;;;8.67;100.00;95869.91;5061279;28;20070;-40
2023/10/28 06:33:12;;;;;;;1.85;0.90;;;9.20;99.90;;;8.72;100.00;95873.16;5057848;28;20277;-39
2023/10/28 06:35:37;;;;;;;5.50;0.90;;;9.20;99.90;;;8.77;100.00;95866.75;5060889;28;20024;-41
2023/10/28 06:38:03;;;;;;;3.47;0.82;;;9.30;99.90;;;8.85;100.00;95868.09;5062209;28;20390;-39
2023/10/28 06:40:29;;;;;;;2.47;0.85;;;9.40;99.90;;;8.90;100.00;95872.19;5062208;28;20028;-39
2023/10/28 06:42:56;;;;;;;2.25;0.75;;;9.50;99.90;;;9.00;100.00;95864.63;5059618;28;20036;-41
2023/10/28 06:45:22;;;;;;;2.45;0.80;;;9.50;99.90;;;9.03;100.00;95867.09;5059777;28;20040;-39
2023/10/28 06:47:48;;;;;;;1.95;0.75;;;9.60;99.90;;;9.09;100.00;95865.91;5059740;28;20028;-39
2023/10/28 06:50:19;;;;;;;5.18;1.05;;;9.60;99.90;;;9.08;100.00;95875.56;5057753;28;20240;-39
2023/10/28 06:52:47;;;;;;;1.80;0.63;;;9.60;99.90;;;9.02;100.00;95867.16;5058168;28;20044;-39
2023/10/28 06:55:13;;;;;;;3.15;1.00;;;9.60;99.90;;;9.05;100.00;95880.16;5058410;28;20039;-39
2023/10/28 06:57:38;;;;;;;3.10;0.80;;;9.60;99.90;;;9.00;100.00;95884.81;5064135;28;20025;-40
2023/10/28 07:00:05;;;;;;;2.92;0.90;;;9.50;99.90;;;9.00;100.00;95890.91;5060533;28;20056;-39
2023/10/28 07:02:32;;;;;;;2.58;0.90;;;9.50;99.90;;;8.95;100.00;95885.94;5060144;28;20123;-39
2023/10/28 07:04:58;;;;;;;4.65;1.10;;;9.50;99.90;;;8.91;100.00;95886.16;5057563;28;20055;-40
2023/10/28 07:07:23;;;;;;;3.28;0.80;;;9.50;99.90;;;8.98;100.00;95905.94;5060715;28;20075;-39
2023/10/28 07:09:49;;;;;;;3.60;0.95;;;9.50;99.90;;;9.10;100.00;95917.56;5061545;28;20413;-39
2023/10/28 07:12:15;;;;;;;2.70;0.80;;;9.70;99.90;;;9.28;100.00;95911.28;5060498;28;20039;-39
2023/10/28 07:14:41;;;;;;;3.67;0.98;;;9.80;99.90;;;9.50;100.00;95913.56;5061797;28;20568;-39
2023/10/28 07:17:07;;;;;;;5.53;0.90;;;10.10;99.90;;;9.73;100.00;95911.41;5059306;28;20028;-40
2023/10/28 07:19:32;;;;;;;2.60;0.75;;;10.30;99.90;;;9.95;100.00;95911.00;5060362;28;20021;-39
2023/10/28 07:21:58;;;;;;;2.78;1.15;;;10.50;99.90;;;10.07;100.00;95922.63;5059788;28;20024;-40
2023/10/28 07:24:24;;;;;;;6.53;1.15;;;10.60;99.90;;;10.15;100.00;95924.81;5058482;28;20223;-40
2023/10/28 07:26:51;;;;;;;5.28;1.00;;;10.70;99.90;;;10.19;100.00;95911.34;5060584;28;20412;-40
2023/10/28 07:29:17;;;;;;;4.15;1.02;;;10.80;99.90;;;10.32;100.00;95925.53;5059232;28;20024;-39
2023/10/28 07:31:42;;;;;;;2.72;0.70;;;10.90;99.90;;;10.45;100.00;95932.72;5057602;28;20036;-39
2023/10/28 07:34:08;;;;;;;1.67;0.70;;;11.00;99.90;;;10.51;100.00;95934.97;5059194;28;20096;-40
2023/10/28 07:36:34;;;;;;;1.88;0.82;;;11.10;99.90;;;10.55;100.00;95930.38;5062580;28;20025;-39
2023/10/28 07:39:01;;;;;;;4.38;1.00;;;11.10;99.90;;;10.44;100.00;95931.84;5060635;28;20739;-39
2023/10/28 07:41:29;;;;;;;3.08;0.95;;;11.00;99.90;;;10.41;100.00;95933.81;5060639;28;20534;-40
2023/10/28 07:43:56;;;;;;;2.47;1.00;;;10.90;99.90;;;10.35;100.00;95942.09;5059666;28;20470;-39
2023/10/28 07:46:25;;;;;;;1.17;0.65;;;10.90;99.90;;;10.36;100.00;95933.28;5060789;28;20520;-40
2023/10/28 07:48:53;;;;;;;3.38;0.93;;;10.90;99.90;;;10.42;100.00;95939.00;5057535;28;20083;-40
2023/10/28 07:51:19;;;;;;;2.85;1.10;;;11.00;99.90;;;10.39;100.00;95944.47;5059551;28;20302;-39
2023/10/28 07:53:48;;;;;;;3.75;0.98;;;11.00;99.90;;;10.55;100.00;95954.97;5059307;28;20447;-39
2023/10/28 07:56:16;;;;;;;3.22;0.90;;;11.10;99.90;;;10.60;100.00;95958.13;5060312;28;20028;-39
2023/10/28 07:58:41;;;;;;;3.75;0.90;;;11.10;99.90;;;10.66;100.00;95972.75;5061396;28;20024;-40
2023/10/28 08:01:17;;;;;;;3.92;0.70;;;11.20;99.90;;;10.61;100.00;95957.22;5058884;28;20416;-39
2023/10/28 08:03:45;;;;;;;2.88;0.65;;;11.10;99.90;;;10.63;100.00;95965.88;5060773;28;20070;-39
2023/10/28 08:06:12;;;;;;;2.65;0.80;;;11.10;99.90;;;10.60;100.00;95962.56;5057516;28;20044;-40
2023/10/28 08:08:39;;;;;;;4.32;0.90;;;11.10;99.90;;;10.59;100.00;95968.81;5058368;28;20024;-40
2023/10/28 08:11:08;;;;;;;3.30;1.20;;;11.10;99.90;;;10.53;100.00;95958.59;5058575;28;20409;-39
2023/10/28 08:13:36;;;;;;;5.18;1.38;;;11.10;99.90;;;10.60;100.00;95968.69;5057886;28;20028;-39
2023/10/28 08:16:03;;;;;;;3.25;0.80;;;11.10;99.90;;;10.67;100.00;95975.28;5058435;28;20299;-40
2023/10/28 08:18:31;;;;;;;3.05;1.08;;;11.20;99.90;;;10.72;100.00;95975.03;5060645;28;20477;-39
2023/10/28 08:20:59;;;;;;;6.25;0.90;;;11.20;99.90;;;10.79;100.00;95978.97;5057492;28;20533;-41
2023/10/28 08:23:25;;;;;;;4.05;1.10;;;11.30;99.90;;;10.81;100.00;95977.09;5059307;28;20522;-40
2023/10/28 08:25:52;;;;;;;4.00;1.13;;;11.30;99.90;;;10.91;100.00;95984.44;5057610;28;20406;-40
2023/10/28 08:28:18;;;;;;;3.75;1.02;;;11.40;99.90;;;10.96;100.00;95985.84;5058655;28;20090;-40
2023/10/28 08:30:46;;;;;;;3.28;1.10;;;11.50;99.90;;;11.08;100.00;95984.28;5058696;28;20037;-41
2023/10/28 08:33:11;;;;;;;6.22;1.10;;;11.60;99.90;;;11.28;100.00;95978.59;5062088;28;20051;-39
2023/10/28 08:35:37;;;;;;;6.18;1.00;;;11.80;99.90;;;11.45;100.00;95974.91;5059728;28;20481;-39
2023/10/28 08:38:05;;;;;;;5.10;1.08;;;12.00;99.90;;;11.57;100.00;95983.00;5058381;28;20154;-40
2023/10/28 08:40:31;;;;;;;8.43;1.25;;;12.10;99.90;;;11.75;100.00;95973.88;5057842;28;20031;-39
2023/10/28 08:43:00;;;;;;;2.75;0.95;;;12.30;99.90;;;12.03;100.00;95980.91;5058452;28;20916;-40
2023/10/28 08:45:29;;;;;;;3.28;1.00;;;12.50;99.90;;;12.21;100.00;95983.28;5058841;28;20174;-41
2023/10/28 08:47:55;;;;;;;5.38;1.10;;;12.70;99.90;;;12.30;100.00;95990.59;5058413;28;20032;-40
2023/10/28 08:50:27;;;;;;;1.73;0.88;;;12.80;99.90;;;12.24;100.00;95985.75;5041369;28;20111;-39
2023/10/28 08:52:57;;;;;;;;;;;12.80;99.90;;;12.15;100.00;95981.91;5055923;28;20051;-40
2023/10/28 08:55:26;;;;;;;3.72;1.02;;;12.70;99.90;;;12.07;100.00;95986.00;5056979;28;19916;-40
2023/10/28 08:57:52;;;;;;;3.00;0.90;;;12.60;99.90;;;12.01;100.00;95990.72;5059259;28;20480;-40
2023/10/28 09:00:23;;;;;;;4.45;1.08;;;12.50;99.90;;;11.94;100.00;95991.25;5056939;28;20433;-40
2023/10/28 09:02:50;;;;;;;2.45;0.85;;;12.50;99.90;;;11.93;100.00;95992.16;5059972;28;20408;-39
2023/10/28 09:05:16;;;;;;;5.03;1.25;;;12.40;99.90;;;11.84;100.00;95975.97;5037205;28;20044;-40
2023/10/28 09:07:45;;;;;;;3.38;0.90;;;12.40;99.90;;;11.98;100.00;95996.19;5058772;28;20051;-41
2023/10/28 09:10:12;;;;;;;3.53;0.90;;;12.50;99.90;;;11.98;100.00;95998.84;5058795;28;20428;-39
2023/10/28 09:12:39;;;;;;;4.20;1.15;;;12.50;99.90;;;12.04;100.00;95987.03;5058125;28;20269;-42
2023/10/28 09:15:06;;;;;;;4.03;1.38;;;12.60;99.90;;;12.22;100.00;96000.81;5058753;28;20254;-39
2023/10/28 09:17:31;;;;;;;4.13;1.00;;;12.70;99.90;;;12.37;100.00;96004.28;5058129;28;20758;-40
2023/10/28 09:19:57;;;;;;;3.00;0.98;;;12.80;99.90;;;12.46;100.00;95998.38;5059247;28;20029;-40
2023/10/28 09:22:24;;;;;;;4.35;1.25;;;13.00;99.90;;;12.48;100.00;96008.84;5061577;28;20024;-40
2023/10/28 09:24:53;;;;;;;2.63;1.00;;;13.00;99.90;;;12.50;100.00;96010.44;5063160;28;20047;-40
2023/10/28 09:27:21;;;;;;;3.20;0.85;;;13.00;99.90;;;12.49;100.00;96005.25;5060402;28;20036;-40
2023/10/28 09:29:46;;;;;;;3.45;1.02;;;13.00;99.90;;;12.44;100.00;95980.94;5062988;28;20043;-40
2023/10/28 09:32:13;;;;;;;4.60;0.80;;;13.00;99.90;;;12.44;100.00;95992.34;5059708;28;20408;-40
2023/10/28 09:34:40;;;;;;;4.18;1.42;;;13.00;99.90;;;12.44;100.00;95996.78;5061522;28;20040;-41
2023/10/28 09:37:07;;;;;;;1.98;0.85;;;13.00;99.90;;;12.44;100.00;96002.91;5061773;28;20428;-39
2023/10/28 09:39:34;;;;;;;2.60;1.02;;;12.90;99.90;;;12.44;100.00;96008.22;5063017;28;20024;-39
2023/10/28 09:42:00;;;;;;;4.78;1.20;;;13.00;99.90;;;12.51;100.00;96011.28;5041984;28;20051;-41
2023/10/28 09:44:27;;;;;;;3.10;1.00;;;13.00;99.90;;;12.54;100.00;96006.66;5061109;28;20481;-41
2023/10/28 09:47:03;;;;;;;4.93;0.93;;;13.10;99.90;;;12.56;100.00;96010.03;5060754;28;20028;-39
2023/10/28 09:49:30;;;;;;;4.05;1.10;;;13.10;99.90;;;12.63;100.00;96007.81;5058771;28;20033;-39
2023/10/28 09:52:11;;;;;;;4.47;1.02;;;13.10;99.90;;;12.70;100.00;95995.84;5060194;28;20033;-40
2023/10/28 09:54:37;;;;;;;4.97;1.13;;;13.20;99.90;;;12.94;100.00;96009.22;5043356;28;20120;-40
2023/10/28 09:57:04;;;;;;;6.25;1.23;;;13.60;99.90;;;13.24;100.00;96012.50;5060591;28;20405;-41
2023/10/28 09:59:34;;;;;;;3.00;1.05;;;13.70;99.90;;;13.53;100.00;96008.69;5043803;28;20111;-41
2023/10/28 10:02:14;;;;;;;5.47;1.17;;;;;;;13.70;100.00;96004.81;5045867;28;20024;-40
2023/10/28 10:04:58;;;;;;;4.45;1.30;;;14.40;99.90;;;14.01;98.58;95999.13;5056461;28;20044;-40
2023/10/28 10:07:25;;;;;;;3.63;1.02;;;14.50;99.90;;;14.08;100.00;95997.72;5043864;28;20374;-40
2023/10/28 10:09:52;;;;;;;4.03;1.02;;;14.70;99.90;;;14.25;100.00;96005.28;5044176;28;20068;-39
2023/10/28 10:12:17;;;;;;;1.60;0.85;;;14.80;99.90;;;14.38;91.56;96007.84;5062157;28;20036;-40
2023/10/28 10:14:47;;;;;;;3.80;1.02;;;14.90;99.90;;;14.47;93.58;96015.13;5061685;28;20405;-40
2023/10/28 10:17:44;;;;;;;3.15;0.80;;;14.90;99.90;;;14.56;95.37;96015.41;5059368;28;20040;-40
2023/10/28 10:20:10;;;;;;;2.78;0.85;;;15.00;99.90;;;14.43;92.11;96008.38;5042113;28;20211;-39
2023/10/28 10:22:38;;;;;;;3.33;1.08;;;15.00;99.90;;;14.44;94.95;96014.50;5061903;28;20060;-40